sensor_id;sensor_type;location;lat;lon;timestamp;P1;durP1;ratioP1;P2;durP2;ratioP2
16416;SDS011;8317;52.186;5.688;2023-08-17T00:01:18;3.25;;;1.98;;
16416;SDS011;8317;52.186;5.688;2023-08-17T00:03:45;2.35;;;1.42;;
16416;SDS011;8317;52.186;5.688;2023-08-17T00:06:12;5.00;;;1.88;;
16416;SDS011;8317;52.186;5.688;2023-08-17T00:08:39;5.28;;;1.42;;
16416;SDS011;8317;52.186;5.688;2023-08-17T00:11:06;2.88;;;1.52;;
16416;SDS011;8317;52.186;5.688;2023-08-17T00:13:33;2.55;;;1.33;;
16416;SDS011;8317;52.186;5.688;2023-08-17T00:16:00;3.38;;;1.83;;
16416;SDS011;8317;52.186;5.688;2023-08-17T00:18:29;5.45;;;1.25;;
16416;SDS011;8317;52.186;5.688;2023-08-17T00:20:56;4.72;;;1.38;;
16416;SDS011;8317;52.186;5.688;2023-08-17T00:23:23;7.05;;;1.58;;
16416;SDS011;8317;52.186;5.688;2023-08-17T00:25:50;2.63;;;1.67;;
16416;SDS011;8317;52.186;5.688;2023-08-17T00:28:16;4.65;;;1.63;;
16416;SDS011;8317;52.186;5.688;2023-08-17T00:30:43;1.88;;;1.35;;
16416;SDS011;8317;52.186;5.688;2023-08-17T00:33:11;2.38;;;1.80;;
16416;SDS011;8317;52.186;5.688;2023-08-17T00:35:39;2.08;;;1.75;;
16416;SDS011;8317;52.186;5.688;2023-08-17T00:38:06;1.90;;;1.50;;
16416;SDS011;8317;52.186;5.688;2023-08-17T00:40:33;4.85;;;1.50;;
16416;SDS011;8317;52.186;5.688;2023-08-17T00:43:00;4.72;;;1.30;;
16416;SDS011;8317;52.186;5.688;2023-08-17T00:45:27;1.25;;;1.15;;
16416;SDS011;8317;52.186;5.688;2023-08-17T00:47:55;4.05;;;1.30;;
16416;SDS011;8317;52.186;5.688;2023-08-17T00:50:23;3.28;;;2.00;;
16416;SDS011;8317;52.186;5.688;2023-08-17T00:52:52;1.42;;;1.27;;
16416;SDS011;8317;52.186;5.688;2023-08-17T00:55:20;2.25;;;1.70;;
16416;SDS011;8317;52.186;5.688;2023-08-17T00:57:48;5.07;;;1.58;;
16416;SDS011;8317;52.186;5.688;2023-08-17T01:00:15;4.45;;;1.67;;
16416;SDS011;8317;52.186;5.688;2023-08-17T01:02:42;10.90;;;1.92;;
16416;SDS011;8317;52.186;5.688;2023-08-17T01:05:10;1.75;;;1.40;;
16416;SDS011;8317;52.186;5.688;2023-08-17T01:07:37;3.63;;;1.65;;
16416;SDS011;8317;52.186;5.688;2023-08-17T01:10:06;1.30;;;1.20;;
16416;SDS011;8317;52.186;5.688;2023-08-17T01:12:36;2.78;;;1.38;;
16416;SDS011;8317;52.186;5.688;2023-08-17T01:15:09;1.10;;;1.00;;
16416;SDS011;8317;52.186;5.688;2023-08-17T01:17:42;1.40;;;1.30;;
16416;SDS011;8317;52.186;5.688;2023-08-17T01:20:13;5.97;;;1.10;;
16416;SDS011;8317;52.186;5.688;2023-08-17T01:22:42;4.25;;;2.15;;
16416;SDS011;8317;52.186;5.688;2023-08-17T01:25:13;1.23;;;1.15;;
16416;SDS011;8317;52.186;5.688;2023-08-17T01:27:40;1.50;;;1.38;;
16416;SDS011;8317;52.186;5.688;2023-08-17T01:30:08;1.30;;;1.20;;
16416;SDS011;8317;52.186;5.688;2023-08-17T01:32:39;1.10;;;1.10;;
16416;SDS011;8317;52.186;5.688;2023-08-17T01:35:11;3.05;;;1.35;;
16416;SDS011;8317;52.186;5.688;2023-08-17T01:37:43;3.05;;;1.50;;
16416;SDS011;8317;52.186;5.688;2023-08-17T01:40:11;5.10;;;1.45;;
16416;SDS011;8317;52.186;5.688;2023-08-17T01:42:41;1.30;;;1.20;;
16416;SDS011;8317;52.186;5.688;2023-08-17T01:45:09;2.78;;;1.40;;
16416;SDS011;8317;52.186;5.688;2023-08-17T01:47:37;3.33;;;1.67;;
16416;SDS011;8317;52.186;5.688;2023-08-17T01:50:04;1.50;;;1.30;;
16416;SDS011;8317;52.186;5.688;2023-08-17T01:52:31;4.75;;;1.27;;
16416;SDS011;8317;52.186;5.688;2023-08-17T01:54:58;2.15;;;1.65;;
16416;SDS011;8317;52.186;5.688;2023-08-17T01:57:26;2.88;;;1.50;;
16416;SDS011;8317;52.186;5.688;2023-08-17T01:59:53;3.55;;;1.50;;
16416;SDS011;8317;52.186;5.688;2023-08-17T02:02:20;4.43;;;1.20;;
16416;SDS011;8317;52.186;5.688;2023-08-17T02:04:47;1.67;;;1.30;;
16416;SDS011;8317;52.186;5.688;2023-08-17T02:07:14;7.45;;;1.65;;
16416;SDS011;8317;52.186;5.688;2023-08-17T02:09:41;2.50;;;1.50;;
16416;SDS011;8317;52.186;5.688;2023-08-17T02:12:08;2.33;;;1.40;;
16416;SDS011;8317;52.186;5.688;2023-08-17T02:14:36;1.90;;;1.55;;
16416;SDS011;8317;52.186;5.688;2023-08-17T02:17:03;1.40;;;1.30;;
16416;SDS011;8317;52.186;5.688;2023-08-17T02:19:31;3.60;;;1.50;;
16416;SDS011;8317;52.186;5.688;2023-08-17T02:21:58;2.33;;;1.45;;
16416;SDS011;8317;52.186;5.688;2023-08-17T02:24:26;1.40;;;1.23;;
16416;SDS011;8317;52.186;5.688;2023-08-17T02:26:53;3.03;;;2.10;;
16416;SDS011;8317;52.186;5.688;2023-08-17T02:29:20;2.30;;;1.63;;
16416;SDS011;8317;52.186;5.688;2023-08-17T02:31:48;2.70;;;1.60;;
16416;SDS011;8317;52.186;5.688;2023-08-17T02:34:15;4.95;;;1.65;;
16416;SDS011;8317;52.186;5.688;2023-08-17T02:36:42;1.48;;;1.10;;
16416;SDS011;8317;52.186;5.688;2023-08-17T02:39:09;1.98;;;1.25;;
16416;SDS011;8317;52.186;5.688;2023-08-17T02:41:36;4.20;;;1.40;;
16416;SDS011;8317;52.186;5.688;2023-08-17T02:44:03;2.13;;;1.50;;
16416;SDS011;8317;52.186;5.688;2023-08-17T02:46:30;3.55;;;1.63;;
16416;SDS011;8317;52.186;5.688;2023-08-17T02:48:58;3.17;;;1.63;;
16416;SDS011;8317;52.186;5.688;2023-08-17T02:51:25;2.55;;;1.42;;
16416;SDS011;8317;52.186;5.688;2023-08-17T02:53:52;1.50;;;1.20;;
16416;SDS011;8317;52.186;5.688;2023-08-17T02:56:19;1.58;;;1.48;;
16416;SDS011;8317;52.186;5.688;2023-08-17T02:58:46;1.42;;;1.25;;
16416;SDS011;8317;52.186;5.688;2023-08-17T03:01:12;2.17;;;1.35;;
16416;SDS011;8317;52.186;5.688;2023-08-17T03:03:39;4.05;;;1.38;;
16416;SDS011;8317;52.186;5.688;2023-08-17T03:06:08;3.17;;;1.80;;
16416;SDS011;8317;52.186;5.688;2023-08-17T03:08:34;4.03;;;1.25;;
16416;SDS011;8317;52.186;5.688;2023-08-17T03:11:01;5.45;;;1.30;;
16416;SDS011;8317;52.186;5.688;2023-08-17T03:13:28;1.50;;;1.40;;
16416;SDS011;8317;52.186;5.688;2023-08-17T03:15:55;2.55;;;1.25;;
16416;SDS011;8317;52.186;5.688;2023-08-17T03:18:22;5.13;;;1.58;;
16416;SDS011;8317;52.186;5.688;2023-08-17T03:20:49;2.03;;;1.33;;
16416;SDS011;8317;52.186;5.688;2023-08-17T03:23:17;5.10;;;1.30;;
16416;SDS011;8317;52.186;5.688;2023-08-17T03:25:44;4.43;;;1.52;;
16416;SDS011;8317;52.186;5.688;2023-08-17T03:28:11;3.85;;;1.63;;
16416;SDS011;8317;52.186;5.688;2023-08-17T03:30:38;3.25;;;1.50;;
16416;SDS011;8317;52.186;5.688;2023-08-17T03:33:05;2.67;;;1.60;;
16416;SDS011;8317;52.186;5.688;2023-08-17T03:35:32;2.45;;;1.42;;
16416;SDS011;8317;52.186;5.688;2023-08-17T03:37:59;5.55;;;1.75;;
16416;SDS011;8317;52.186;5.688;2023-08-17T03:40:28;4.13;;;1.48;;
16416;SDS011;8317;52.186;5.688;2023-08-17T03:42:54;6.00;;;1.85;;
16416;SDS011;8317;52.186;5.688;2023-08-17T03:45:21;2.65;;;1.55;;
16416;SDS011;8317;52.186;5.688;2023-08-17T03:47:48;4.72;;;1.50;;
16416;SDS011;8317;52.186;5.688;2023-08-17T03:50:15;3.10;;;1.77;;
16416;SDS011;8317;52.186;5.688;2023-08-17T03:52:42;5.28;;;1.48;;
16416;SDS011;8317;52.186;5.688;2023-08-17T03:55:09;1.30;;;1.20;;
16416;SDS011;8317;52.186;5.688;2023-08-17T03:57:37;3.90;;;2.00;;
16416;SDS011;8317;52.186;5.688;2023-08-17T04:00:05;1.92;;;1.20;;
16416;SDS011;8317;52.186;5.688;2023-08-17T04:02:32;6.28;;;1.65;;
16416;SDS011;8317;52.186;5.688;2023-08-17T04:04:59;3.65;;;1.58;;
16416;SDS011;8317;52.186;5.688;2023-08-17T04:07:27;3.63;;;1.80;;
16416;SDS011;8317;52.186;5.688;2023-08-17T04:09:54;4.38;;;1.35;;
16416;SDS011;8317;52.186;5.688;2023-08-17T04:12:21;1.70;;;1.60;;
16416;SDS011;8317;52.186;5.688;2023-08-17T04:14:49;2.38;;;1.60;;
16416;SDS011;8317;52.186;5.688;2023-08-17T04:17:16;6.72;;;1.35;;
16416;SDS011;8317;52.186;5.688;2023-08-17T04:19:43;2.05;;;1.25;;
16416;SDS011;8317;52.186;5.688;2023-08-17T04:22:10;3.03;;;1.20;;
16416;SDS011;8317;52.186;5.688;2023-08-17T04:24:37;4.68;;;1.52;;
16416;SDS011;8317;52.186;5.688;2023-08-17T04:27:04;2.53;;;1.40;;
16416;SDS011;8317;52.186;5.688;2023-08-17T04:29:31;3.63;;;1.83;;
16416;SDS011;8317;52.186;5.688;2023-08-17T04:31:59;1.98;;;1.30;;
16416;SDS011;8317;52.186;5.688;2023-08-17T04:34:26;5.10;;;1.63;;
16416;SDS011;8317;52.186;5.688;2023-08-17T04:36:53;3.70;;;1.55;;
16416;SDS011;8317;52.186;5.688;2023-08-17T04:39:20;1.95;;;1.55;;
16416;SDS011;8317;52.186;5.688;2023-08-17T04:41:47;2.90;;;1.30;;
16416;SDS011;8317;52.186;5.688;2023-08-17T04:44:14;5.85;;;1.70;;
16416;SDS011;8317;52.186;5.688;2023-08-17T04:46:41;1.63;;;1.45;;
16416;SDS011;8317;52.186;5.688;2023-08-17T04:49:09;2.08;;;1.70;;
16416;SDS011;8317;52.186;5.688;2023-08-17T04:51:36;1.60;;;1.50;;
16416;SDS011;8317;52.186;5.688;2023-08-17T04:54:03;1.35;;;1.25;;
16416;SDS011;8317;52.186;5.688;2023-08-17T04:56:30;5.03;;;1.80;;
16416;SDS011;8317;52.186;5.688;2023-08-17T04:58:57;4.22;;;1.38;;
16416;SDS011;8317;52.186;5.688;2023-08-17T05:01:23;2.45;;;1.38;;
16416;SDS011;8317;52.186;5.688;2023-08-17T05:03:50;3.65;;;1.63;;
16416;SDS011;8317;52.186;5.688;2023-08-17T05:06:19;5.07;;;1.50;;
16416;SDS011;8317;52.186;5.688;2023-08-17T05:08:46;2.75;;;1.45;;
16416;SDS011;8317;52.186;5.688;2023-08-17T05:11:13;3.85;;;1.80;;
16416;SDS011;8317;52.186;5.688;2023-08-17T05:13:39;4.28;;;1.77;;
16416;SDS011;8317;52.186;5.688;2023-08-17T05:16:06;1.60;;;1.50;;
16416;SDS011;8317;52.186;5.688;2023-08-17T05:18:33;2.28;;;2.10;;
16416;SDS011;8317;52.186;5.688;2023-08-17T05:21:00;1.55;;;1.38;;
16416;SDS011;8317;52.186;5.688;2023-08-17T05:23:28;5.85;;;1.92;;
16416;SDS011;8317;52.186;5.688;2023-08-17T05:25:55;4.20;;;1.50;;
16416;SDS011;8317;52.186;5.688;2023-08-17T05:28:22;2.40;;;1.50;;
16416;SDS011;8317;52.186;5.688;2023-08-17T05:30:49;2.75;;;1.63;;
16416;SDS011;8317;52.186;5.688;2023-08-17T05:33:16;9.70;;;2.03;;
16416;SDS011;8317;52.186;5.688;2023-08-17T05:35:43;2.40;;;1.60;;
16416;SDS011;8317;52.186;5.688;2023-08-17T05:38:10;3.42;;;1.83;;
16416;SDS011;8317;52.186;5.688;2023-08-17T05:40:38;2.90;;;1.75;;
16416;SDS011;8317;52.186;5.688;2023-08-17T05:43:05;5.70;;;1.90;;
16416;SDS011;8317;52.186;5.688;2023-08-17T05:45:32;6.25;;;2.08;;
16416;SDS011;8317;52.186;5.688;2023-08-17T05:48:01;2.88;;;1.48;;
16416;SDS011;8317;52.186;5.688;2023-08-17T05:50:29;5.07;;;1.75;;
16416;SDS011;8317;52.186;5.688;2023-08-17T05:52:55;5.22;;;2.13;;
16416;SDS011;8317;52.186;5.688;2023-08-17T05:55:22;3.92;;;1.75;;
16416;SDS011;8317;52.186;5.688;2023-08-17T05:57:51;4.22;;;1.50;;
16416;SDS011;8317;52.186;5.688;2023-08-17T06:00:18;6.45;;;2.10;;
16416;SDS011;8317;52.186;5.688;2023-08-17T06:02:44;4.72;;;1.73;;
16416;SDS011;8317;52.186;5.688;2023-08-17T06:05:15;2.88;;;1.70;;
16416;SDS011;8317;52.186;5.688;2023-08-17T06:07:41;8.30;;;1.98;;
16416;SDS011;8317;52.186;5.688;2023-08-17T06:10:09;2.42;;;1.90;;
16416;SDS011;8317;52.186;5.688;2023-08-17T06:12:36;4.55;;;1.50;;
16416;SDS011;8317;52.186;5.688;2023-08-17T06:15:05;7.22;;;1.88;;
16416;SDS011;8317;52.186;5.688;2023-08-17T06:17:33;2.85;;;1.50;;
16416;SDS011;8317;52.186;5.688;2023-08-17T06:20:00;3.30;;;1.55;;
16416;SDS011;8317;52.186;5.688;2023-08-17T06:22:28;1.60;;;1.42;;
16416;SDS011;8317;52.186;5.688;2023-08-17T06:24:55;1.95;;;1.40;;
16416;SDS011;8317;52.186;5.688;2023-08-17T06:27:22;3.28;;;1.55;;
16416;SDS011;8317;52.186;5.688;2023-08-17T06:29:49;1.40;;;1.30;;
16416;SDS011;8317;52.186;5.688;2023-08-17T06:32:17;3.45;;;1.52;;
16416;SDS011;8317;52.186;5.688;2023-08-17T06:34:44;6.07;;;2.20;;
16416;SDS011;8317;52.186;5.688;2023-08-17T06:37:11;3.20;;;1.83;;
16416;SDS011;8317;52.186;5.688;2023-08-17T06:39:38;2.00;;;1.70;;
16416;SDS011;8317;52.186;5.688;2023-08-17T06:42:05;5.75;;;1.98;;
16416;SDS011;8317;52.186;5.688;2023-08-17T06:44:32;2.33;;;1.40;;
16416;SDS011;8317;52.186;5.688;2023-08-17T06:46:59;4.07;;;1.60;;
16416;SDS011;8317;52.186;5.688;2023-08-17T06:49:27;2.17;;;1.65;;
16416;SDS011;8317;52.186;5.688;2023-08-17T06:51:54;1.98;;;1.65;;
16416;SDS011;8317;52.186;5.688;2023-08-17T06:54:21;3.30;;;1.70;;
16416;SDS011;8317;52.186;5.688;2023-08-17T06:56:48;3.92;;;1.90;;
16416;SDS011;8317;52.186;5.688;2023-08-17T06:59:15;4.38;;;1.50;;
16416;SDS011;8317;52.186;5.688;2023-08-17T07:01:42;7.18;;;1.90;;
16416;SDS011;8317;52.186;5.688;2023-08-17T07:04:08;4.28;;;1.63;;
16416;SDS011;8317;52.186;5.688;2023-08-17T07:06:37;5.30;;;1.45;;
16416;SDS011;8317;52.186;5.688;2023-08-17T07:09:04;2.15;;;1.45;;
16416;SDS011;8317;52.186;5.688;2023-08-17T07:11:31;3.42;;;1.80;;
16416;SDS011;8317;52.186;5.688;2023-08-17T07:13:58;3.58;;;1.27;;
16416;SDS011;8317;52.186;5.688;2023-08-17T07:16:24;6.78;;;1.70;;
16416;SDS011;8317;52.186;5.688;2023-08-17T07:18:51;3.72;;;1.70;;
16416;SDS011;8317;52.186;5.688;2023-08-17T07:21:18;3.70;;;1.63;;
16416;SDS011;8317;52.186;5.688;2023-08-17T07:23:46;4.78;;;1.52;;
16416;SDS011;8317;52.186;5.688;2023-08-17T07:26:13;5.85;;;2.00;;
16416;SDS011;8317;52.186;5.688;2023-08-17T07:28:40;2.70;;;1.55;;
16416;SDS011;8317;52.186;5.688;2023-08-17T07:31:07;4.55;;;1.75;;
16416;SDS011;8317;52.186;5.688;2023-08-17T07:33:34;2.78;;;1.50;;
16416;SDS011;8317;52.186;5.688;2023-08-17T07:36:01;6.00;;;1.15;;
16416;SDS011;8317;52.186;5.688;2023-08-17T07:38:29;2.65;;;1.67;;
16416;SDS011;8317;52.186;5.688;2023-08-17T07:40:57;1.70;;;1.60;;
16416;SDS011;8317;52.186;5.688;2023-08-17T07:43:24;9.25;;;1.80;;
16416;SDS011;8317;52.186;5.688;2023-08-17T07:45:54;6.00;;;1.70;;
16416;SDS011;8317;52.186;5.688;2023-08-17T07:48:21;5.97;;;1.55;;
16416;SDS011;8317;52.186;5.688;2023-08-17T07:50:49;1.75;;;1.63;;
16416;SDS011;8317;52.186;5.688;2023-08-17T07:53:16;3.38;;;1.60;;
16416;SDS011;8317;52.186;5.688;2023-08-17T07:55:43;3.90;;;1.25;;
16416;SDS011;8317;52.186;5.688;2023-08-17T07:58:12;4.13;;;1.70;;
16416;SDS011;8317;52.186;5.688;2023-08-17T08:00:39;2.08;;;1.40;;
16416;SDS011;8317;52.186;5.688;2023-08-17T08:03:06;3.88;;;1.70;;
16416;SDS011;8317;52.186;5.688;2023-08-17T08:05:33;4.97;;;1.50;;
16416;SDS011;8317;52.186;5.688;2023-08-17T08:08:00;3.55;;;1.30;;
16416;SDS011;8317;52.186;5.688;2023-08-17T08:10:27;1.83;;;1.17;;
16416;SDS011;8317;52.186;5.688;2023-08-17T08:12:54;1.55;;;1.00;;
16416;SDS011;8317;52.186;5.688;2023-08-17T08:15:22;5.68;;;1.50;;
16416;SDS011;8317;52.186;5.688;2023-08-17T08:17:49;2.97;;;1.10;;
16416;SDS011;8317;52.186;5.688;2023-08-17T08:20:16;3.00;;;1.17;;
16416;SDS011;8317;52.186;5.688;2023-08-17T08:22:43;2.65;;;1.40;;
16416;SDS011;8317;52.186;5.688;2023-08-17T08:25:10;2.35;;;1.38;;
16416;SDS011;8317;52.186;5.688;2023-08-17T08:27:37;4.18;;;1.20;;
16416;SDS011;8317;52.186;5.688;2023-08-17T08:30:05;3.25;;;1.02;;
16416;SDS011;8317;52.186;5.688;2023-08-17T08:32:34;7.97;;;1.52;;
16416;SDS011;8317;52.186;5.688;2023-08-17T08:35:01;1.75;;;1.20;;
16416;SDS011;8317;52.186;5.688;2023-08-17T08:37:28;7.63;;;1.88;;
16416;SDS011;8317;52.186;5.688;2023-08-17T08:39:55;4.43;;;1.67;;
16416;SDS011;8317;52.186;5.688;2023-08-17T08:42:22;5.57;;;1.92;;
16416;SDS011;8317;52.186;5.688;2023-08-17T08:44:50;3.28;;;1.50;;
16416;SDS011;8317;52.186;5.688;2023-08-17T08:47:17;4.05;;;1.58;;
16416;SDS011;8317;52.186;5.688;2023-08-17T08:49:48;5.22;;;1.85;;
16416;SDS011;8317;52.186;5.688;2023-08-17T08:52:21;3.53;;;1.60;;
16416;SDS011;8317;52.186;5.688;2023-08-17T08:54:49;7.40;;;2.03;;
16416;SDS011;8317;52.186;5.688;2023-08-17T08:57:18;7.63;;;1.67;;
16416;SDS011;8317;52.186;5.688;2023-08-17T08:59:45;5.72;;;2.03;;
16416;SDS011;8317;52.186;5.688;2023-08-17T09:02:14;7.68;;;1.80;;
16416;SDS011;8317;52.186;5.688;2023-08-17T09:04:41;3.00;;;1.55;;
16416;SDS011;8317;52.186;5.688;2023-08-17T09:07:10;5.38;;;1.75;;
16416;SDS011;8317;52.186;5.688;2023-08-17T09:09:38;4.88;;;2.08;;
16416;SDS011;8317;52.186;5.688;2023-08-17T09:12:06;4.88;;;1.67;;
16416;SDS011;8317;52.186;5.688;2023-08-17T09:14:35;5.30;;;1.73;;
16416;SDS011;8317;52.186;5.688;2023-08-17T09:17:02;4.45;;;1.95;;
16416;SDS011;8317;52.186;5.688;2023-08-17T09:19:31;3.42;;;1.40;;
16416;SDS011;8317;52.186;5.688;2023-08-17T09:21:58;6.28;;;1.67;;
16416;SDS011;8317;52.186;5.688;2023-08-17T09:24:29;3.10;;;1.77;;
16416;SDS011;8317;52.186;5.688;2023-08-17T09:27:00;6.53;;;2.15;;
16416;SDS011;8317;52.186;5.688;2023-08-17T09:29:27;8.15;;;1.88;;
16416;SDS011;8317;52.186;5.688;2023-08-17T09:31:57;4.35;;;2.30;;
16416;SDS011;8317;52.186;5.688;2023-08-17T09:34:24;7.22;;;2.47;;
16416;SDS011;8317;52.186;5.688;2023-08-17T09:36:51;9.98;;;2.47;;
16416;SDS011;8317;52.186;5.688;2023-08-17T09:39:18;3.40;;;2.47;;
16416;SDS011;8317;52.186;5.688;2023-08-17T09:41:46;4.53;;;2.30;;
16416;SDS011;8317;52.186;5.688;2023-08-17T09:44:13;4.70;;;2.35;;
16416;SDS011;8317;52.186;5.688;2023-08-17T09:46:42;3.75;;;1.95;;
16416;SDS011;8317;52.186;5.688;2023-08-17T09:49:10;6.78;;;2.20;;
16416;SDS011;8317;52.186;5.688;2023-08-17T09:51:37;5.97;;;2.13;;
16416;SDS011;8317;52.186;5.688;2023-08-17T09:54:04;2.90;;;2.03;;
16416;SDS011;8317;52.186;5.688;2023-08-17T09:56:31;4.97;;;2.42;;
16416;SDS011;8317;52.186;5.688;2023-08-17T09:58:59;7.00;;;2.75;;
16416;SDS011;8317;52.186;5.688;2023-08-17T10:01:27;4.15;;;2.40;;
16416;SDS011;8317;52.186;5.688;2023-08-17T10:03:55;6.15;;;2.05;;
16416;SDS011;8317;52.186;5.688;2023-08-17T10:06:24;3.05;;;1.60;;
16416;SDS011;8317;52.186;5.688;2023-08-17T10:08:53;3.70;;;1.92;;
16416;SDS011;8317;52.186;5.688;2023-08-17T10:11:22;3.85;;;2.00;;
16416;SDS011;8317;52.186;5.688;2023-08-17T10:13:51;2.65;;;2.03;;
16416;SDS011;8317;52.186;5.688;2023-08-17T10:16:26;3.63;;;1.98;;
16416;SDS011;8317;52.186;5.688;2023-08-17T10:19:05;5.97;;;1.88;;
16416;SDS011;8317;52.186;5.688;2023-08-17T10:21:39;5.13;;;2.92;;
16416;SDS011;8317;52.186;5.688;2023-08-17T10:24:09;6.05;;;2.63;;
16416;SDS011;8317;52.186;5.688;2023-08-17T10:26:38;4.15;;;1.83;;
16416;SDS011;8317;52.186;5.688;2023-08-17T10:29:05;7.03;;;1.95;;
16416;SDS011;8317;52.186;5.688;2023-08-17T10:31:35;4.25;;;2.38;;
16416;SDS011;8317;52.186;5.688;2023-08-17T10:34:02;8.15;;;2.47;;
16416;SDS011;8317;52.186;5.688;2023-08-17T10:36:30;11.77;;;2.33;;
16416;SDS011;8317;52.186;5.688;2023-08-17T10:41:46;7.88;;;2.40;;
16416;SDS011;8317;52.186;5.688;2023-08-17T10:44:13;5.97;;;2.13;;
16416;SDS011;8317;52.186;5.688;2023-08-17T10:46:42;2.42;;;1.85;;
16416;SDS011;8317;52.186;5.688;2023-08-17T10:49:23;6.18;;;2.10;;
16416;SDS011;8317;52.186;5.688;2023-08-17T10:54:37;8.35;;;2.25;;
16416;SDS011;8317;52.186;5.688;2023-08-17T11:00:06;6.63;;;2.85;;
16416;SDS011;8317;52.186;5.688;2023-08-17T11:02:40;6.05;;;2.45;;
16416;SDS011;8317;52.186;5.688;2023-08-17T11:05:09;6.47;;;2.50;;
16416;SDS011;8317;52.186;5.688;2023-08-17T11:07:38;8.15;;;2.35;;
16416;SDS011;8317;52.186;5.688;2023-08-17T11:10:13;10.63;;;2.42;;
16416;SDS011;8317;52.186;5.688;2023-08-17T11:12:54;2.30;;;1.85;;
16416;SDS011;8317;52.186;5.688;2023-08-17T11:15:24;5.88;;;3.10;;
16416;SDS011;8317;52.186;5.688;2023-08-17T11:17:52;8.30;;;3.25;;
16416;SDS011;8317;52.186;5.688;2023-08-17T11:20:19;5.53;;;2.30;;
16416;SDS011;8317;52.186;5.688;2023-08-17T11:22:50;5.15;;;2.40;;
16416;SDS011;8317;52.186;5.688;2023-08-17T11:25:17;7.78;;;2.63;;
16416;SDS011;8317;52.186;5.688;2023-08-17T11:27:44;3.47;;;2.20;;
16416;SDS011;8317;52.186;5.688;2023-08-17T11:30:11;4.20;;;2.30;;
16416;SDS011;8317;52.186;5.688;2023-08-17T11:32:39;8.88;;;2.90;;
16416;SDS011;8317;52.186;5.688;2023-08-17T11:35:07;3.05;;;1.85;;
16416;SDS011;8317;52.186;5.688;2023-08-17T11:37:34;8.50;;;2.67;;
16416;SDS011;8317;52.186;5.688;2023-08-17T11:40:01;3.53;;;2.28;;
16416;SDS011;8317;52.186;5.688;2023-08-17T11:42:29;6.13;;;2.85;;
16416;SDS011;8317;52.186;5.688;2023-08-17T11:44:56;6.43;;;2.60;;
16416;SDS011;8317;52.186;5.688;2023-08-17T11:47:23;2.92;;;1.95;;
16416;SDS011;8317;52.186;5.688;2023-08-17T11:49:50;2.65;;;1.88;;
16416;SDS011;8317;52.186;5.688;2023-08-17T11:52:18;6.07;;;2.63;;
16416;SDS011;8317;52.186;5.688;2023-08-17T11:54:45;2.83;;;2.10;;
16416;SDS011;8317;52.186;5.688;2023-08-17T11:57:12;3.08;;;2.33;;
16416;SDS011;8317;52.186;5.688;2023-08-17T11:59:39;2.42;;;2.13;;
16416;SDS011;8317;52.186;5.688;2023-08-17T12:02:06;3.15;;;2.35;;
16416;SDS011;8317;52.186;5.688;2023-08-17T12:04:33;4.40;;;2.33;;
16416;SDS011;8317;52.186;5.688;2023-08-17T12:07:00;3.70;;;2.33;;
16416;SDS011;8317;52.186;5.688;2023-08-17T12:09:29;3.58;;;2.42;;
16416;SDS011;8317;52.186;5.688;2023-08-17T12:11:59;5.28;;;2.70;;
16416;SDS011;8317;52.186;5.688;2023-08-17T12:14:26;4.13;;;2.47;;
16416;SDS011;8317;52.186;5.688;2023-08-17T12:16:54;5.13;;;3.00;;
16416;SDS011;8317;52.186;5.688;2023-08-17T12:19:21;4.20;;;2.65;;
16416;SDS011;8317;52.186;5.688;2023-08-17T12:21:51;4.63;;;3.33;;
16416;SDS011;8317;52.186;5.688;2023-08-17T12:24:18;4.32;;;2.25;;
16416;SDS011;8317;52.186;5.688;2023-08-17T12:26:47;3.03;;;2.50;;
16416;SDS011;8317;52.186;5.688;2023-08-17T12:29:14;8.95;;;3.05;;
16416;SDS011;8317;52.186;5.688;2023-08-17T12:31:41;3.00;;;2.05;;
16416;SDS011;8317;52.186;5.688;2023-08-17T12:34:07;2.38;;;2.17;;
16416;SDS011;8317;52.186;5.688;2023-08-17T12:36:34;4.47;;;2.88;;
16416;SDS011;8317;52.186;5.688;2023-08-17T12:39:03;4.00;;;2.55;;
16416;SDS011;8317;52.186;5.688;2023-08-17T12:41:30;3.40;;;2.40;;
16416;SDS011;8317;52.186;5.688;2023-08-17T12:43:59;3.38;;;2.70;;
16416;SDS011;8317;52.186;5.688;2023-08-17T12:46:26;2.45;;;2.25;;
16416;SDS011;8317;52.186;5.688;2023-08-17T12:48:53;4.20;;;2.40;;
16416;SDS011;8317;52.186;5.688;2023-08-17T12:51:19;2.42;;;2.22;;
16416;SDS011;8317;52.186;5.688;2023-08-17T12:53:47;6.07;;;2.90;;
16416;SDS011;8317;52.186;5.688;2023-08-17T12:56:14;4.88;;;2.08;;
16416;SDS011;8317;52.186;5.688;2023-08-17T12:58:40;7.60;;;2.67;;
16416;SDS011;8317;52.186;5.688;2023-08-17T13:01:09;4.50;;;2.20;;
16416;SDS011;8317;52.186;5.688;2023-08-17T13:03:36;4.13;;;2.30;;
16416;SDS011;8317;52.186;5.688;2023-08-17T13:06:03;5.55;;;2.70;;
16416;SDS011;8317;52.186;5.688;2023-08-17T13:08:30;3.28;;;1.90;;
16416;SDS011;8317;52.186;5.688;2023-08-17T13:10:57;3.03;;;2.15;;
16416;SDS011;8317;52.186;5.688;2023-08-17T13:13:24;2.55;;;2.35;;
16416;SDS011;8317;52.186;5.688;2023-08-17T13:15:51;3.30;;;2.65;;
16416;SDS011;8317;52.186;5.688;2023-08-17T13:18:19;4.22;;;2.83;;
16416;SDS011;8317;52.186;5.688;2023-08-17T13:20:46;6.55;;;2.70;;
16416;SDS011;8317;52.186;5.688;2023-08-17T13:23:13;5.05;;;2.88;;
16416;SDS011;8317;52.186;5.688;2023-08-17T13:25:40;5.68;;;2.90;;
16416;SDS011;8317;52.186;5.688;2023-08-17T13:28:07;4.05;;;2.65;;
16416;SDS011;8317;52.186;5.688;2023-08-17T13:30:34;7.70;;;2.92;;
16416;SDS011;8317;52.186;5.688;2023-08-17T13:33:01;4.05;;;2.90;;
16416;SDS011;8317;52.186;5.688;2023-08-17T13:35:29;6.32;;;2.83;;
16416;SDS011;8317;52.186;5.688;2023-08-17T13:37:56;3.70;;;2.67;;
16416;SDS011;8317;52.186;5.688;2023-08-17T13:40:23;3.60;;;2.70;;
16416;SDS011;8317;52.186;5.688;2023-08-17T13:42:50;3.70;;;3.10;;
16416;SDS011;8317;52.186;5.688;2023-08-17T13:45:17;5.75;;;3.33;;
16416;SDS011;8317;52.186;5.688;2023-08-17T13:47:44;4.00;;;2.83;;
16416;SDS011;8317;52.186;5.688;2023-08-17T13:50:11;5.05;;;3.05;;
16416;SDS011;8317;52.186;5.688;2023-08-17T13:52:39;5.80;;;3.17;;
16416;SDS011;8317;52.186;5.688;2023-08-17T13:55:06;7.28;;;3.85;;
16416;SDS011;8317;52.186;5.688;2023-08-17T13:57:34;2.55;;;2.35;;
16416;SDS011;8317;52.186;5.688;2023-08-17T14:00:01;3.67;;;3.20;;
16416;SDS011;8317;52.186;5.688;2023-08-17T14:02:29;2.78;;;2.55;;
16416;SDS011;8317;52.186;5.688;2023-08-17T14:04:56;8.57;;;2.90;;
16416;SDS011;8317;52.186;5.688;2023-08-17T14:07:23;4.28;;;3.42;;
16416;SDS011;8317;52.186;5.688;2023-08-17T14:09:51;6.50;;;3.05;;
16416;SDS011;8317;52.186;5.688;2023-08-17T14:12:18;6.43;;;3.13;;
16416;SDS011;8317;52.186;5.688;2023-08-17T14:14:45;6.75;;;3.67;;
16416;SDS011;8317;52.186;5.688;2023-08-17T14:17:12;5.45;;;2.88;;
16416;SDS011;8317;52.186;5.688;2023-08-17T14:19:39;4.88;;;3.83;;
16416;SDS011;8317;52.186;5.688;2023-08-17T14:22:07;4.78;;;3.03;;
16416;SDS011;8317;52.186;5.688;2023-08-17T14:24:34;7.13;;;3.28;;
16416;SDS011;8317;52.186;5.688;2023-08-17T14:27:03;7.75;;;3.35;;
16416;SDS011;8317;52.186;5.688;2023-08-17T14:29:30;5.53;;;3.22;;
16416;SDS011;8317;52.186;5.688;2023-08-17T14:31:57;5.43;;;3.40;;
16416;SDS011;8317;52.186;5.688;2023-08-17T14:34:23;5.38;;;3.20;;
16416;SDS011;8317;52.186;5.688;2023-08-17T14:36:51;5.55;;;3.38;;
16416;SDS011;8317;52.186;5.688;2023-08-17T14:39:18;5.68;;;3.65;;
16416;SDS011;8317;52.186;5.688;2023-08-17T14:41:45;7.07;;;4.00;;
16416;SDS011;8317;52.186;5.688;2023-08-17T14:44:13;8.43;;;4.63;;
16416;SDS011;8317;52.186;5.688;2023-08-17T14:46:40;6.60;;;3.70;;
16416;SDS011;8317;52.186;5.688;2023-08-17T14:49:07;5.38;;;3.25;;
16416;SDS011;8317;52.186;5.688;2023-08-17T14:51:36;5.43;;;3.90;;
16416;SDS011;8317;52.186;5.688;2023-08-17T14:54:04;7.90;;;3.80;;
16416;SDS011;8317;52.186;5.688;2023-08-17T14:56:31;5.47;;;3.55;;
16416;SDS011;8317;52.186;5.688;2023-08-17T14:58:58;5.70;;;3.38;;
16416;SDS011;8317;52.186;5.688;2023-08-17T15:01:26;4.60;;;3.58;;
16416;SDS011;8317;52.186;5.688;2023-08-17T15:03:53;4.07;;;3.50;;
16416;SDS011;8317;52.186;5.688;2023-08-17T15:06:20;5.32;;;3.25;;
16416;SDS011;8317;52.186;5.688;2023-08-17T15:08:48;5.35;;;3.55;;
16416;SDS011;8317;52.186;5.688;2023-08-17T15:11:15;4.93;;;3.00;;